Time;durP1;ratioP1;P1;durP2;ratioP2;P2;SDS_P1;SDS_P2;PMS_P1;PMS_P2;Temp;Humidity;BMP_temperature;BMP_pressure;BME280_temperature;BME280_humidity;BME280_pressure;Samples;Min_cycle;Max_cycle;Signal;HPM_P1;HPM_P2
2021/03/03 00:01:42;;;;;;;28.60;15.10;;;;;;;8.45;55.47;97913.25;5069217;28;20417;-64
2021/03/03 00:04:08;;;;;;;31.00;16.87;;;;;;;8.47;55.08;97918.38;5064315;28;20431;-65
2021/03/03 00:06:33;;;;;;;29.73;16.00;;;;;;;8.42;54.58;97921.34;5065475;28;20704;-64
2021/03/03 00:08:59;;;;;;;37.77;16.50;;;;;;;8.34;54.87;97921.09;5064103;28;20183;-65
2021/03/03 00:11:25;;;;;;;27.67;15.53;;;;;;;8.31;55.18;97918.75;5073445;28;20343;-65
2021/03/03 00:13:51;;;;;;;40.03;16.60;;;;;;;8.25;55.38;97916.59;5072174;28;20178;-64
2021/03/03 00:16:16;;;;;;;31.20;16.60;;;;;;;8.25;55.29;97919.22;5073142;28;20439;-64
2021/03/03 00:18:42;;;;;;;39.93;17.07;;;;;;;8.21;55.21;97920.41;5073521;28;20215;-63
2021/03/03 00:21:08;;;;;;;29.00;16.17;;;;;;;8.15;55.67;97917.31;5071826;28;20174;-65
2021/03/03 00:23:33;;;;;;;29.20;15.60;;;;;;;8.17;55.59;97919.00;5069146;28;20202;-66
2021/03/03 00:25:59;;;;;;;34.70;16.43;;;;;;;8.16;55.53;97918.16;5071856;28;20186;-64
2021/03/03 00:28:24;;;;;;;30.70;16.00;;;;;;;8.12;56.12;97921.97;5072823;28;20194;-65
2021/03/03 00:30:50;;;;;;;34.10;16.60;;;;;;;8.18;55.23;97923.28;5070165;28;20200;-67
2021/03/03 00:33:15;;;;;;;29.40;16.00;;;;;;;8.18;55.36;97915.44;5064511;28;20189;-65
2021/03/03 00:35:41;;;;;;;27.40;15.10;;;;;;;8.17;55.03;97925.03;5073635;28;20187;-63
2021/03/03 00:38:07;;;;;;;28.70;14.73;;;;;;;8.16;55.09;97920.75;5065092;28;20244;-65
2021/03/03 00:40:32;;;;;;;29.90;14.50;;;;;;;8.13;54.82;97918.38;5073635;28;20596;-65
2021/03/03 00:42:58;;;;;;;30.07;15.40;;;;;;;8.09;54.94;97922.19;5060912;28;20186;-63
2021/03/03 00:45:24;;;;;;;32.07;15.87;;;;;;;7.99;55.05;97917.69;5067213;28;20370;-64
2021/03/03 00:47:50;;;;;;;30.70;15.13;;;;;;;7.96;55.39;97911.84;5064353;28;20522;-63
2021/03/03 00:50:15;;;;;;;30.50;15.13;;;;;;;7.94;55.16;97911.16;5072977;28;20182;-64
2021/03/03 00:52:41;;;;;;;29.33;15.63;;;;;;;7.87;55.53;97908.19;5071803;28;20217;-65
2021/03/03 00:55:07;;;;;;;30.47;15.80;;;;;;;7.87;55.64;97912.56;5055499;28;20294;-64
2021/03/03 00:57:32;;;;;;;28.67;16.00;;;;;;;7.87;55.74;97904.75;5072658;28;20198;-62
2021/03/03 00:59:58;;;;;;;29.27;15.90;;;;;;;7.84;55.60;97914.47;5070652;28;20439;-65
2021/03/03 01:02:24;;;;;;;34.73;15.47;;;;;;;7.83;56.22;97918.03;5072338;28;20186;-67
2021/03/03 01:04:49;;;;;;;32.27;15.50;;;;;;;7.81;55.96;97912.09;5071225;28;20710;-64
2021/03/03 01:07:15;;;;;;;27.90;16.10;;;;;;;7.80;55.63;97907.00;5071491;28;20219;-64
2021/03/03 01:09:40;;;;;;;28.70;15.93;;;;;;;7.72;56.00;97907.56;5073490;28;20193;-66
2021/03/03 01:12:06;;;;;;;26.67;15.40;;;;;;;7.66;56.24;97897.63;5071402;28;20245;-65
2021/03/03 01:14:32;;;;;;;30.93;14.97;;;;;;;7.69;56.24;97906.03;5065667;28;20191;-64
2021/03/03 01:16:57;;;;;;;32.20;15.33;;;;;;;7.69;56.18;97899.97;5070321;28;20950;-64
2021/03/03 01:19:23;;;;;;;25.93;14.90;;;;;;;7.65;55.77;97901.16;5072193;28;20239;-64
2021/03/03 01:21:48;;;;;;;28.73;17.03;;;;;;;7.63;56.37;97900.44;5063480;28;20265;-66
2021/03/03 01:24:14;;;;;;;32.93;14.30;;;;;;;7.59;56.17;97894.66;5066344;28;20576;-63
2021/03/03 01:26:40;;;;;;;28.50;15.43;;;;;;;7.60;56.35;97892.84;5071617;28;20241;-65
2021/03/03 01:29:06;;;;;;;32.80;15.90;;;;;;;7.58;56.24;97892.97;5063265;28;20187;-64
2021/03/03 01:31:32;;;;;;;31.00;16.03;;;;;;;7.58;56.19;97889.53;5066932;28;20831;-65
2021/03/03 01:33:58;;;;;;;30.87;16.60;;;;;;;7.58;56.13;97892.97;5070886;28;20558;-65
2021/03/03 01:36:24;;;;;;;27.17;14.87;;;;;;;7.60;56.24;97890.25;5072760;28;20470;-64
2021/03/03 01:38:50;;;;;;;27.40;14.87;;;;;;;7.58;56.48;97887.75;5073717;28;20511;-64
2021/03/03 01:41:16;;;;;;;29.60;14.97;;;;;;;7.56;56.18;97896.66;5068489;28;20201;-65
2021/03/03 01:43:41;;;;;;;32.97;16.03;;;;;;;7.58;57.04;97892.13;5069264;28;20190;-65
2021/03/03 01:46:07;;;;;;;27.40;15.47;;;;;;;7.62;56.54;97883.13;5064919;28;20433;-64
2021/03/03 01:48:33;;;;;;;26.10;15.10;;;;;;;7.61;56.36;97877.09;5071774;28;20196;-65
2021/03/03 01:50:58;;;;;;;28.63;14.73;;;;;;;7.58;56.34;97872.09;5072586;28;20206;-66
2021/03/03 01:53:24;;;;;;;30.33;14.60;;;;;;;7.62;56.30;97883.97;5070805;28;20197;-65
2021/03/03 01:55:50;;;;;;;31.20;16.07;;;;;;;7.59;56.22;97878.16;5072530;28;20182;-64
2021/03/03 01:58:15;;;;;;;32.60;15.77;;;;;;;7.58;56.21;97874.72;5069829;28;20337;-66
2021/03/03 02:00:41;;;;;;;24.37;15.00;;;;;;;7.53;56.16;97875.06;5068894;28;20664;-64
2021/03/03 02:03:07;;;;;;;30.70;15.30;;;;;;;7.51;55.80;97876.97;5061664;28;20183;-66
2021/03/03 02:05:33;;;;;;;30.73;15.60;;;;;;;7.51;56.49;97876.97;5051931;28;20872;-67
2021/03/03 02:08:12;;;;;;;30.40;14.23;;;;;;;7.48;56.62;97873.75;5072321;28;20449;-63
2021/03/03 02:10:57;;;;;;;30.80;15.40;;;;;;;7.43;56.43;97873.25;5067170;28;20675;-64
2021/03/03 02:13:28;;;;;;;27.50;15.90;;;;;;;7.43;56.19;97874.13;5041530;28;21116;-64
2021/03/03 02:15:56;;;;;;;30.30;15.60;;;;;;;7.42;56.10;97872.44;5072703;28;20515;-64
2021/03/03 02:18:22;;;;;;;28.73;13.63;;;;;;;7.44;56.23;97870.53;5066533;28;20463;-63
2021/03/03 02:21:26;;;;;;;29.90;13.90;;;;;;;7.42;56.16;97869.84;5068594;28;20420;-65
2021/03/03 02:24:10;;;;;;;29.80;15.13;;;;;;;7.40;56.06;97870.88;5068337;28;20421;-62
2021/03/03 02:26:36;;;;;;;31.27;15.13;;;;;;;7.39;56.09;97867.47;5072255;28;20531;-63
2021/03/03 02:29:08;;;;;;;27.90;13.70;;;;;;;7.37;56.37;97864.13;5072668;28;20424;-63
2021/03/03 02:31:35;;;;;;;29.40;14.50;;;;;;;7.37;56.47;97866.75;5069724;28;20471;-65
2021/03/03 02:34:02;;;;;;;25.70;15.47;;;;;;;7.33;56.74;97862.69;5073537;28;20450;-66
2021/03/03 02:36:28;;;;;;;28.83;14.50;;;;;;;7.34;56.29;97864.34;5075393;28;20506;-65
2021/03/03 02:38:54;;;;;;;31.20;14.20;;;;;;;7.30;56.44;97865.56;5075741;28;20512;-66
2021/03/03 02:41:19;;;;;;;27.67;14.50;;;;;;;7.30;56.79;97865.56;5067733;28;20198;-64
2021/03/03 02:43:45;;;;;;;26.50;15.47;;;;;;;7.28;56.74;97864.84;5068912;28;20202;-65
2021/03/03 02:46:11;;;;;;;27.50;14.53;;;;;;;7.28;57.36;97870.03;5074052;28;20191;-65
2021/03/03 02:48:38;;;;;;;31.67;15.90;;;;;;;7.31;57.06;97875.03;5055033;28;20447;-65
2021/03/03 02:51:10;;;;;;;32.20;15.67;;;;;;;7.35;57.01;97871.22;5070407;28;20203;-64
2021/03/03 02:53:36;;;;;;;30.60;15.47;;;;;;;7.36;56.82;97872.91;5068848;28;20432;-66
2021/03/03 02:56:02;;;;;;;36.70;18.03;;;;;;;7.48;56.90;97869.38;5071435;28;20798;-64
2021/03/03 02:58:28;;;;;;;27.73;15.40;;;;;;;7.63;56.43;97863.94;5066056;28;20212;-64
2021/03/03 03:00:54;;;;;;;32.10;16.77;;;;;;;7.69;55.95;97858.22;5068787;28;20189;-64
2021/03/03 03:03:25;;;;;;;31.30;17.40;;;;;;;7.77;55.76;97849.81;5064654;28;20266;-64
2021/03/03 03:06:05;;;;;;;36.37;16.17;;;;;;;7.80;55.38;97850.41;5043414;28;20527;-64
2021/03/03 03:08:31;;;;;;;34.83;16.40;;;;;;;7.84;55.10;97849.22;5070303;28;20432;-65
2021/03/03 03:11:03;;;;;;;30.13;16.00;;;;;;;7.88;55.23;97849.81;5070554;28;20823;-64
2021/03/03 03:13:33;;;;;;;31.40;16.03;;;;;;;7.92;55.27;97847.81;5053391;28;20441;-65
2021/03/03 03:15:59;;;;;;;30.70;16.67;;;;;;;7.87;54.87;97855.16;5069593;28;20436;-64
2021/03/03 03:18:29;;;;;;;28.07;16.53;;;;;;;7.86;54.73;97840.44;5070892;28;20981;-66
2021/03/03 03:20:56;;;;;;;30.07;16.23;;;;;;;7.92;54.68;97843.41;5070974;28;20420;-64
2021/03/03 03:23:22;;;;;;;31.80;16.30;;;;;;;7.88;54.49;97838.53;5067437;28;20448;-63
2021/03/03 03:25:48;;;;;;;28.10;16.67;;;;;;;7.81;54.98;97851.25;5058265;28;20432;-66
2021/03/03 03:28:15;;;;;;;34.13;17.03;;;;;;;7.75;55.28;97849.13;5069465;28;20206;-64
2021/03/03 03:30:41;;;;;;;26.93;15.40;;;;;;;7.73;55.36;97841.38;5072183;28;20431;-65
2021/03/03 03:33:06;;;;;;;36.30;17.13;;;;;;;7.76;54.87;97853.34;5074020;28;20420;-65
2021/03/03 03:35:32;;;;;;;32.50;16.87;;;;;;;7.78;55.03;97854.06;5074225;28;20432;-66
2021/03/03 03:37:59;;;;;;;28.90;16.43;;;;;;;7.77;54.85;97850.66;5072306;28;20250;-65
2021/03/03 03:40:25;;;;;;;25.93;15.80;;;;;;;7.74;55.08;97848.28;5074166;28;20193;-64
2021/03/03 03:42:55;;;;;;;29.03;15.93;;;;;;;7.71;54.47;97850.28;5065159;28;20802;-66
2021/03/03 03:45:26;;;;;;;33.40;15.70;;;;;;;7.63;55.27;97854.31;5075031;28;20276;-65
2021/03/03 03:47:52;;;;;;;28.90;15.97;;;;;;;7.61;54.87;97853.63;5072797;28;20441;-64
2021/03/03 03:50:18;;;;;;;32.00;17.33;;;;;;;7.55;55.60;97855.88;5072895;28;20498;-63
2021/03/03 03:52:44;;;;;;;28.93;16.63;;;;;;;7.57;55.46;97862.63;5072094;28;20540;-64
2021/03/03 03:55:10;;;;;;;38.40;15.90;;;;;;;7.56;55.22;97867.97;5074252;28;20861;-65
2021/03/03 03:57:56;;;;;;;27.50;16.20;;;;;;;7.50;55.46;97870.06;5073835;28;20214;-66
2021/03/03 04:00:22;;;;;;;30.10;16.60;;;;;;;7.37;55.11;97871.94;5069292;28;20440;-64
2021/03/03 04:02:48;;;;;;;34.37;16.33;;;;;;;7.42;56.14;97867.22;5072364;28;20420;-66
2021/03/03 04:05:14;;;;;;;32.17;17.00;;;;;;;7.44;55.79;97875.75;5068242;28;20428;-64
2021/03/03 04:07:40;;;;;;;35.07;16.50;;;;;;;7.41;55.75;97875.16;5070517;28;20451;-64
2021/03/03 04:10:08;;;;;;;32.60;16.53;;;;;;;7.37;56.03;97879.78;5051709;28;20430;-65
2021/03/03 04:12:34;;;;;;;29.80;17.67;;;;;;;7.41;55.70;97882.97;5058228;28;20325;-63
2021/03/03 04:14:59;;;;;;;26.33;15.20;;;;;;;7.40;55.83;97884.78;5073173;28;20603;-64
2021/03/03 04:17:25;;;;;;;30.33;17.07;;;;;;;7.35;55.99;97879.91;5064300;28;20279;-67
2021/03/03 04:19:51;;;;;;;31.53;16.83;;;;;;;7.38;55.89;97878.84;5049527;28;20179;-67
2021/03/03 04:22:17;;;;;;;38.63;16.50;;;;;;;7.37;55.81;97874.56;5051621;28;20262;-65
2021/03/03 04:24:43;;;;;;;27.17;15.20;;;;;;;7.36;55.94;97872.91;5052897;28;20657;-65
2021/03/03 04:27:08;;;;;;;32.67;16.00;;;;;;;7.34;55.63;97880.84;5053016;28;20449;-66
2021/03/03 04:29:34;;;;;;;28.03;16.73;;;;;;;7.29;55.98;97882.13;5053185;28;20187;-64
2021/03/03 04:32:00;;;;;;;33.10;16.97;;;;;;;7.27;55.84;97886.63;5052609;28;20217;-64
2021/03/03 04:34:25;;;;;;;36.93;16.60;;;;;;;7.28;55.98;97880.47;5050986;28;20195;-65
2021/03/03 04:36:51;;;;;;;29.43;15.63;;;;;;;7.27;56.02;97873.59;5051528;28;20281;-66
2021/03/03 04:39:16;;;;;;;35.93;16.90;;;;;;;7.21;56.62;97875.69;5059606;28;20189;-64
2021/03/03 04:41:42;;;;;;;39.93;17.20;;;;;;;7.26;56.70;97883.19;5059373;28;20189;-65
2021/03/03 04:44:08;;;;;;;37.57;16.83;;;;;;;7.28;56.17;97877.88;5063968;28;20231;-67
2021/03/03 04:46:33;;;;;;;35.53;18.77;;;;;;;7.30;56.57;97878.59;5055995;28;20294;-64
2021/03/03 04:48:59;;;;;;;31.83;17.20;;;;;;;7.32;56.63;97879.28;5054575;28;20213;-65
2021/03/03 04:51:25;;;;;;;38.50;17.40;;;;;;;7.34;56.66;97880.00;5052980;28;20547;-65
2021/03/03 04:53:50;;;;;;;34.00;17.60;;;;;;;7.37;56.10;97871.94;5051144;28;20226;-68
2021/03/03 04:56:16;;;;;;;31.00;16.53;;;;;;;7.41;56.10;97873.41;5052070;28;20739;-65
2021/03/03 04:58:42;;;;;;;32.47;16.30;;;;;;;7.44;56.09;97873.13;5051103;28;20441;-63
2021/03/03 05:01:08;;;;;;;37.17;19.10;;;;;;;7.44;55.87;97877.53;5051042;28;20614;-63
2021/03/03 05:03:33;;;;;;;28.47;16.23;;;;;;;7.39;55.96;97875.28;5051603;28;20239;-64
2021/03/03 05:05:59;;;;;;;35.07;16.27;;;;;;;7.36;56.80;97872.91;5050719;28;20673;-66
2021/03/03 05:08:24;;;;;;;33.00;17.50;;;;;;;7.39;56.27;97875.28;5052156;28;20187;-64
2021/03/03 05:10:50;;;;;;;28.47;17.23;;;;;;;7.35;56.37;97877.28;5050107;28;20237;-64
2021/03/03 05:13:16;;;;;;;32.20;16.67;;;;;;;7.34;56.33;97874.78;5051447;28;20206;-64
2021/03/03 05:15:42;;;;;;;29.60;16.37;;;;;;;7.36;56.41;97872.91;5051758;28;20668;-62
2021/03/03 05:18:09;;;;;;;32.93;16.50;;;;;;;7.37;56.29;97874.56;5053443;28;20465;-63
2021/03/03 05:20:35;;;;;;;29.30;16.67;;;;;;;7.37;56.27;97871.94;5051703;28;20426;-62
2021/03/03 05:23:00;;;;;;;29.60;16.67;;;;;;;7.34;56.14;97869.56;5050353;28;20426;-63
2021/03/03 05:25:26;;;;;;;29.17;16.90;;;;;;;7.33;56.34;97867.91;5051631;28;20182;-65
2021/03/03 05:27:51;;;;;;;32.50;16.83;;;;;;;7.33;56.38;97862.69;5051623;28;20203;-65
2021/03/03 05:30:17;;;;;;;33.03;17.47;;;;;;;7.32;55.75;97867.09;5051171;28;20210;-65
2021/03/03 05:32:43;;;;;;;29.87;17.63;;;;;;;7.28;56.27;97855.22;5061494;28;20207;-62
2021/03/03 05:35:09;;;;;;;32.00;18.57;;;;;;;7.27;56.16;97855.34;5042975;28;20440;-65
2021/03/03 05:37:35;;;;;;;34.33;17.10;;;;;;;7.29;56.34;97851.66;5058415;28;20337;-65
2021/03/03 05:40:01;;;;;;;34.37;17.53;;;;;;;7.27;56.23;97852.72;5051732;28;20559;-64
2021/03/03 05:42:28;;;;;;;42.43;17.87;;;;;;;7.30;55.86;97849.91;5059234;28;20266;-63
2021/03/03 05:44:53;;;;;;;36.93;18.63;;;;;;;7.27;56.14;97853.56;5050408;28;20680;-65
2021/03/03 05:47:20;;;;;;;32.80;17.27;;;;;;;7.23;56.10;97858.19;5049699;28;20524;-65
2021/03/03 05:49:47;;;;;;;35.90;18.13;;;;;;;7.24;56.43;97856.41;5052459;28;20274;-65
2021/03/03 05:52:14;;;;;;;34.43;17.63;;;;;;;7.25;56.30;97855.44;5056890;28;20814;-64
2021/03/03 05:54:41;;;;;;;31.53;17.50;;;;;;;7.28;55.89;97850.00;5050370;28;20427;-64
2021/03/03 05:57:07;;;;;;;30.20;16.67;;;;;;;7.29;56.32;97856.06;5035199;28;20436;-65
2021/03/03 05:59:33;;;;;;;31.83;18.00;;;;;;;7.29;56.30;97856.88;5049824;28;20417;-65
2021/03/03 06:01:58;;;;;;;32.23;16.60;;;;;;;7.28;56.91;97857.81;5049490;28;20471;-65
2021/03/03 06:04:24;;;;;;;30.60;16.37;;;;;;;7.36;56.36;97862.47;5050307;28;20187;-65
2021/03/03 06:06:50;;;;;;;35.23;17.70;;;;;;;7.36;56.10;97867.69;5050786;28;20207;-66
2021/03/03 06:09:15;;;;;;;38.80;17.00;;;;;;;7.32;55.96;97871.44;5053025;28;20491;-66
2021/03/03 06:11:41;;;;;;;28.07;15.90;;;;;;;7.33;56.43;97865.28;5050704;28;20206;-66
2021/03/03 06:14:07;;;;;;;27.90;16.37;;;;;;;7.30;56.34;97868.97;5051156;28;20210;-66
2021/03/03 06:16:32;;;;;;;31.83;17.20;;;;;;;7.32;56.27;97874.06;5050466;28;20201;-68
2021/03/03 06:18:58;;;;;;;33.37;16.53;;;;;;;7.34;56.12;97872.19;5056657;28;20269;-66
2021/03/03 06:21:25;;;;;;;30.40;18.23;;;;;;;7.31;56.23;97881.06;5050685;28;20321;-65
2021/03/03 06:24:08;;;;;;;36.27;18.43;;;;;;;7.35;56.48;97874.69;5049679;28;20205;-66
2021/03/03 06:26:35;;;;;;;33.40;20.10;;;;;;;7.33;56.45;97870.50;5049806;28;20452;-67
2021/03/03 06:29:11;;;;;;;33.70;18.93;;;;;;;7.28;56.94;97880.47;5068375;28;20450;-65
2021/03/03 06:31:37;;;;;;;41.43;18.80;;;;;;;7.39;56.61;97877.88;5062529;28;20463;-65
2021/03/03 06:34:10;;;;;;;41.63;19.30;;;;;;;7.48;56.70;97873.75;5049461;28;20428;-65
2021/03/03 06:36:37;;;;;;;34.73;17.13;;;;;;;7.56;56.38;97873.19;5064994;28;20443;-66
2021/03/03 06:39:28;;;;;;;32.27;17.20;;;;;;;7.64;56.04;97869.00;5070857;28;20428;-65
2021/03/03 06:41:59;;;;;;;32.97;17.47;;;;;;;7.70;55.96;97875.53;5061273;28;20476;-66
2021/03/03 06:44:26;;;;;;;29.20;17.40;;;;;;;7.77;56.00;97879.34;5070238;28;20440;-66
2021/03/03 06:47:09;;;;;;;32.53;18.10;;;;;;;7.85;55.76;97881.38;5070650;28;20842;-64
2021/03/03 06:49:35;;;;;;;35.90;18.00;;;;;;;7.97;55.51;97876.97;5069600;28;20428;-65
2021/03/03 06:52:01;;;;;;;27.57;16.63;;;;;;;8.03;55.27;97875.66;5070697;28;20448;-66
2021/03/03 06:54:26;;;;;;;36.43;19.10;;;;;;;8.02;55.00;97885.28;5068432;28;20194;-67
2021/03/03 06:56:54;;;;;;;37.30;20.10;;;;;;;7.99;55.34;97880.31;5056352;28;20214;-65
2021/03/03 06:59:27;;;;;;;36.37;19.00;;;;;;;8.03;55.13;97886.94;5070750;28;20676;-66
2021/03/03 07:02:09;;;;;;;43.13;18.43;;;;;;;8.15;54.41;97888.59;5069013;28;20868;-65
2021/03/03 07:04:38;;;;;;;26.23;16.60;;;;;;;8.27;54.55;97888.59;5073222;28;20408;-65
2021/03/03 07:07:10;;;;;;;32.67;18.60;;;;;;;8.33;53.95;97893.31;5073956;28;20475;-65
2021/03/03 07:09:43;;;;;;;39.03;20.13;;;;;;;8.40;54.26;97883.22;5066990;28;20457;-66
2021/03/03 07:12:11;;;;;;;36.93;19.73;;;;;;;8.50;53.92;97888.56;5056295;28;20603;-66
2021/03/03 07:14:38;;;;;;;42.27;24.00;;;;;;;8.54;53.09;97888.19;5058033;28;20429;-65
2021/03/03 07:17:18;;;;;;;29.50;18.20;;;;;;;8.67;52.53;97885.44;5075019;28;20451;-66
2021/03/03 07:19:48;;;;;;;29.07;18.60;;;;;;;8.81;51.23;97886.13;5070827;28;20420;-69
2021/03/03 07:22:31;;;;;;;31.53;18.00;;;;;;;8.89;51.02;97875.84;5063691;28;20491;-68
2021/03/03 07:25:04;;;;;;;28.67;17.40;;;;;;;9.01;50.42;97890.53;5075377;28;20421;-66
2021/03/03 07:27:30;;;;;;;33.23;18.63;;;;;;;9.11;50.67;97887.16;5066266;28;20466;-66
2021/03/03 07:30:02;;;;;;;30.17;17.03;;;;;;;9.19;50.93;97895.22;5075219;28;20457;-65
2021/03/03 07:32:28;;;;;;;30.00;17.33;;;;;;;9.28;49.75;97886.63;5070762;28;20578;-66
2021/03/03 07:34:55;;;;;;;31.87;16.67;;;;;;;9.41;49.57;97890.81;5062201;28;20417;-66
2021/03/03 07:37:23;;;;;;;39.00;20.83;;;;;;;9.49;49.61;97896.22;5097778;28;20232;-65
2021/03/03 07:39:54;;;;;;;39.70;19.97;;;;;;;9.58;49.72;97886.78;5068940;28;20441;-67
2021/03/03 07:42:24;;;;;;;32.40;17.97;;;;;;;9.66;49.75;97876.50;5057653;28;20438;-65
2021/03/03 07:44:50;;;;;;;32.03;18.53;;;;;;;9.76;49.82;97879.16;5060486;28;20967;-67
2021/03/03 07:47:17;;;;;;;31.03;17.37;;;;;;;9.83;49.50;97885.53;5042285;28;21018;-67
2021/03/03 07:49:47;;;;;;;32.67;18.03;;;;;;;9.91;49.10;97875.25;5046159;28;20483;-69
2021/03/03 07:52:14;;;;;;;29.70;16.80;;;;;;;9.99;48.69;97878.03;5061123;28;20535;-66
2021/03/03 07:54:40;;;;;;;29.57;17.67;;;;;;;10.02;48.21;97882.16;5075018;28;20426;-69
2021/03/03 07:57:07;;;;;;;31.20;17.07;;;;;;;10.13;47.88;97889.94;5075115;28;20520;-67
2021/03/03 07:59:33;;;;;;;35.27;17.70;;;;;;;10.22;48.13;97883.06;5061688;28;20548;-68
2021/03/03 08:01:59;;;;;;;28.80;17.63;;;;;;;10.32;48.17;97879.66;5030920;28;20425;-67
2021/03/03 08:04:35;;;;;;;32.43;19.30;;;;;;;10.39;47.74;97873.78;5051393;28;20321;-67
2021/03/03 08:07:16;;;;;;;29.83;17.53;;;;;;;10.50;47.96;97879.84;5054048;28;20205;-67
2021/03/03 08:10:19;;;;;;;29.80;18.03;;;;;;;10.58;47.29;97874.75;5048400;28;20417;-65
2021/03/03 08:12:58;;;;;;;31.50;17.40;;;;;;;10.60;46.54;97883.31;5048959;28;20548;-67
2021/03/03 08:15:31;;;;;;;31.07;16.10;;;;;;;10.70;46.61;97876.28;5057950;28;20421;-67
2021/03/03 08:18:23;;;;;;;25.17;15.20;;;;;;;10.82;45.96;97873.53;5061799;28;20472;-68
2021/03/03 08:20:53;;;;;;;28.67;16.30;;;;;;;10.93;45.13;97877.81;5057061;28;20449;-68
2021/03/03 08:23:33;;;;;;;28.30;16.80;;;;;;;11.01;45.13;97880.56;5052783;28;21046;-68
2021/03/03 08:26:04;;;;;;;31.20;17.50;;;;;;;11.12;45.23;97877.81;5051486;28;20486;-68
2021/03/03 08:28:29;;;;;;;35.30;16.90;;;;;;;11.16;45.11;97881.81;5053048;28;20417;-66
2021/03/03 08:31:10;;;;;;;30.43;15.27;;;;;;;11.26;44.94;97876.56;5051738;28;20443;-68
2021/03/03 08:33:49;;;;;;;33.23;15.43;;;;;;;11.30;44.41;97877.09;5048605;28;20191;-67
2021/03/03 08:36:20;;;;;;;31.93;15.20;;;;;;;11.34;43.75;97873.25;5052790;28;20920;-66
2021/03/03 08:38:55;;;;;;;29.53;15.50;;;;;;;11.45;43.74;97878.34;5052500;28;20582;-67
2021/03/03 08:41:28;;;;;;;28.67;16.10;;;;;;;11.48;43.35;97878.03;5057712;28;20420;-66
2021/03/03 08:44:06;;;;;;;32.90;16.93;;;;;;;11.25;43.45;97889.81;5052210;28;20476;-67
2021/03/03 08:46:37;;;;;;;30.93;15.30;;;;;;;11.40;43.03;97883.16;5052099;28;20453;-68
2021/03/03 08:49:05;;;;;;;24.77;14.77;;;;;;;11.56;42.88;97876.50;5050870;28;20425;-67
2021/03/03 08:51:45;;;;;;;29.37;14.50;;;;;;;11.73;43.24;97872.31;5051861;28;20548;-67
2021/03/03 08:54:18;;;;;;;24.37;15.00;;;;;;;11.92;42.25;97872.22;5043213;28;20427;-67
2021/03/03 08:56:48;;;;;;;27.40;15.97;;;;;;;12.06;42.63;97870.97;5052270;28;20437;-67
2021/03/03 08:59:29;;;;;;;29.17;15.80;;;;;;;12.10;42.78;97869.69;5046510;28;20425;-67
2021/03/03 09:02:17;;;;;;;25.70;15.33;;;;;;;12.23;42.75;97872.00;5055138;28;20432;-66
2021/03/03 09:04:44;;;;;;;27.27;14.60;;;;;;;12.26;42.28;97870.84;5053518;28;20504;-66
2021/03/03 09:07:14;;;;;;;27.27;15.03;;;;;;;12.31;42.06;97876.50;5044522;28;20463;-66
2021/03/03 09:09:49;;;;;;;29.90;15.80;;;;;;;12.40;42.22;97872.19;5059671;28;20424;-66
2021/03/03 09:12:19;;;;;;;28.70;15.30;;;;;;;12.28;42.14;97872.38;5044576;28;20461;-66
2021/03/03 09:14:47;;;;;;;25.13;15.77;;;;;;;12.33;41.89;97874.56;5051083;28;20429;-66
2021/03/03 09:17:15;;;;;;;26.03;15.77;;;;;;;12.49;42.30;97873.06;5050683;28;20594;-65
2021/03/03 09:19:41;;;;;;;30.43;17.53;;;;;;;12.53;41.55;97882.31;5051823;28;20937;-65
2021/03/03 09:22:15;;;;;;;27.83;16.53;;;;;;;12.58;41.83;97882.72;5051355;28;20428;-65
2021/03/03 09:24:40;;;;;;;29.97;15.40;;;;;;;12.73;41.95;97872.50;5052013;28;20417;-66
2021/03/03 09:27:09;;;;;;;33.13;17.47;;;;;;;12.87;41.99;97869.34;5052018;28;20440;-67
2021/03/03 09:29:36;;;;;;;27.97;15.80;;;;;;;13.01;41.94;97878.50;5050680;28;20413;-66
2021/03/03 09:32:22;;;;;;;29.07;15.90;;;;;;;13.10;41.58;97878.59;5051648;28;20464;-67
2021/03/03 09:34:57;;;;;;;28.77;15.73;;;;;;;13.23;40.90;97875.56;5051257;28;20507;-67
2021/03/03 09:37:23;;;;;;;33.97;16.37;;;;;;;13.36;41.60;97868.09;5039111;28;20455;-67
2021/03/03 09:39:53;;;;;;;40.83;18.50;;;;;;;12.96;42.04;97867.63;5055387;28;20437;-68
2021/03/03 09:42:19;;;;;;;48.40;16.90;;;;;;;12.86;42.23;97864.22;5064117;28;20424;-67
2021/03/03 09:44:53;;;;;;;39.57;15.90;;;;;;;13.27;41.76;97872.47;5050605;28;20967;-68
2021/03/03 09:47:30;;;;;;;28.77;15.50;;;;;;;13.55;40.91;97868.88;5062285;28;20293;-66
2021/03/03 09:49:56;;;;;;;32.30;16.87;;;;;;;13.76;40.77;97865.88;5052586;28;20457;-66
2021/03/03 09:52:22;;;;;;;35.07;17.27;;;;;;;13.75;40.92;97858.97;5060438;28;20461;-66
2021/03/03 09:54:48;;;;;;;31.03;17.20;;;;;;;13.87;40.65;97857.72;5053713;28;20429;-66
2021/03/03 09:57:22;;;;;;;36.10;17.10;;;;;;;13.89;40.74;97860.22;5060087;28;20441;-65
2021/03/03 09:59:52;;;;;;;29.23;17.70;;;;;;;13.91;40.55;97859.06;5050430;28;20951;-68
2021/03/03 10:02:26;;;;;;;26.23;16.50;;;;;;;14.17;40.43;97871.38;5050847;28;20417;-68
2021/03/03 10:04:53;;;;;;;60.17;19.13;;;;;;;13.98;41.21;97864.53;5048346;28;20433;-68
2021/03/03 10:07:24;;;;;;;36.53;17.43;;;;;;;14.12;40.98;97860.47;5052121;28;20445;-68
2021/03/03 10:09:58;;;;;;;34.43;17.73;;;;;;;14.36;40.49;97866.81;5060606;28;20412;-68
2021/03/03 10:12:34;;;;;;;40.37;16.80;;;;;;;14.49;40.17;97859.25;5050776;28;20465;-67
2021/03/03 10:15:01;;;;;;;25.53;16.83;;;;;;;14.53;40.08;97857.94;5049905;28;20422;-68
2021/03/03 10:17:32;;;;;;;34.80;17.63;;;;;;;14.64;39.95;97861.25;5050299;28;20440;-69
2021/03/03 10:19:59;;;;;;;34.40;17.27;;;;;;;14.62;39.63;97860.63;5050554;28;20510;-68
2021/03/03 10:22:25;;;;;;;35.70;17.70;;;;;;;14.57;39.82;97864.56;5050780;28;20555;-70
2021/03/03 10:25:06;;;;;;;34.53;17.10;;;;;;;14.67;39.33;97860.94;5049723;28;20936;-68
2021/03/03 10:27:39;;;;;;;34.63;17.00;;;;;;;14.24;40.51;97859.19;5050140;28;20540;-67
2021/03/03 10:30:25;;;;;;;49.13;17.00;;;;;;;14.70;39.53;97866.75;5050507;28;20828;-71
2021/03/03 10:32:53;;;;;;;46.77;23.87;;;;;;;14.61;40.11;97869.53;5049896;28;20834;-68
2021/03/03 10:35:20;;;;;;;38.00;17.40;;;;;;;14.95;39.50;97861.50;5053468;28;20935;-68
2021/03/03 10:37:46;;;;;;;36.97;18.03;;;;;;;14.90;39.61;97862.00;5054564;28;20827;-70
2021/03/03 10:40:13;;;;;;;34.93;18.40;;;;;;;15.03;39.56;97863.31;5053371;28;20476;-69
2021/03/03 10:42:39;;;;;;;29.60;16.07;;;;;;;15.03;39.39;97858.88;5062771;28;20254;-68
2021/03/03 10:45:19;;;;;;;30.37;17.07;;;;;;;15.28;39.03;97855.38;5055580;28;20531;-66
2021/03/03 10:47:45;;;;;;;31.67;19.27;;;;;;;15.46;38.71;97856.03;5057801;28;20429;-67
2021/03/03 10:50:11;;;;;;;30.60;17.27;;;;;;;15.71;38.47;97858.63;5053666;28;20421;-66
2021/03/03 10:52:37;;;;;;;34.20;19.17;;;;;;;15.72;38.46;97857.63;5054885;28;20468;-69
2021/03/03 10:55:19;;;;;;;36.67;21.07;;;;;;;15.42;38.84;97851.25;5054197;28;20452;-67
2021/03/03 10:57:59;;;;;;;34.33;19.10;;;;;;;15.39;39.51;97847.13;5062604;28;20203;-68
2021/03/03 11:00:24;;;;;;;47.87;19.73;;;;;;;15.55;39.27;97856.03;5053206;28;20437;-68
2021/03/03 11:03:05;;;;;;;44.73;20.80;;;;;;;15.03;40.33;97852.75;5054880;28;20414;-68
2021/03/03 11:05:31;;;;;;;31.93;17.33;;;;;;;15.16;40.05;97847.81;5054650;28;20181;-68
2021/03/03 11:07:58;;;;;;;35.03;17.70;;;;;;;15.40;39.60;97838.22;5053450;28;20438;-68
2021/03/03 11:10:23;;;;;;;38.07;20.13;;;;;;;15.59;39.07;97841.50;5036412;28;20932;-67
2021/03/03 11:12:49;;;;;;;31.90;18.57;;;;;;;15.73;38.97;97843.44;5070980;28;20463;-68
2021/03/03 11:15:17;;;;;;;37.93;18.90;;;;;;;15.73;39.06;97832.88;5062495;28;20191;-67
2021/03/03 11:17:43;;;;;;;38.23;18.77;;;;;;;15.84;38.82;97828.19;5053229;28;20210;-68
2021/03/03 11:20:10;;;;;;;33.90;18.30;;;;;;;15.91;38.70;97827.38;5046364;28;20427;-67
2021/03/03 11:22:35;;;;;;;37.60;17.43;;;;;;;15.96;38.24;97821.59;5052875;28;20425;-67
2021/03/03 11:25:02;;;;;;;34.83;17.30;;;;;;;15.99;38.17;97821.25;5053027;28;20854;-67
2021/03/03 11:27:28;;;;;;;25.60;16.20;;;;;;;16.20;37.54;97817.16;5053471;28;20226;-67
2021/03/03 11:29:54;;;;;;;36.73;17.67;;;;;;;16.24;37.55;97813.19;5052816;28;20421;-68